createdAt,value
2022-12-08T00:03:27.124Z,100506.44
2022-12-08T00:08:37.391Z,100551.09
2022-12-08T00:13:28.935Z,100500.44
2022-12-08T00:18:21.367Z,100542.81
2022-12-08T00:23:12.909Z,100531.84
2022-12-08T00:28:04.696Z,100452.16
2022-12-08T00:32:57.883Z,100458.41
2022-12-08T00:37:51.780Z,100334.47
2022-12-08T00:42:45.644Z,100451.59
2022-12-08T00:47:37.184Z,100503.09
2022-12-08T00:52:28.716Z,100485.66
2022-12-08T00:57:20.360Z,100352.91
2022-12-08T01:02:11.867Z,100449.41
2022-12-08T01:07:03.452Z,100488.59
2022-12-08T01:11:55.031Z,100466.09
2022-12-08T01:16:46.816Z,100494.22
2022-12-08T01:21:39.061Z,100492.19
2022-12-08T01:26:30.674Z,100493.28
2022-12-08T01:31:22.771Z,100480.88
2022-12-08T01:36:26.507Z,100499.22
2022-12-08T01:41:21.266Z,100424.03
2022-12-08T01:46:14.270Z,100448.81
2022-12-08T01:51:06.964Z,100319.38
2022-12-08T01:56:06.331Z,100492.81
2022-12-08T02:00:58.082Z,100384.66
2022-12-08T02:05:49.948Z,100479.75
2022-12-08T02:10:42.923Z,100486.47
2022-12-08T02:15:41.939Z,100476.09
2022-12-08T02:20:37.872Z,100375.69
2022-12-08T02:25:32.369Z,100464.97
2022-12-08T02:30:50.225Z,100469.38
2022-12-08T02:35:53.714Z,100449.38
2022-12-08T02:40:50.781Z,100456.09
2022-12-08T02:45:52.407Z,100339.50
2022-12-08T02:50:44.097Z,100295.69
2022-12-08T02:55:53.945Z,100429.34
2022-12-08T03:00:57.922Z,100360.84
2022-12-08T03:06:12.789Z,100360.94
2022-12-08T03:11:20.365Z,100334.22
2022-12-08T03:16:16.582Z,100293.00
2022-12-08T03:21:09.405Z,100304.47
2022-12-08T03:26:10.030Z,100247.31
2022-12-08T03:31:07.146Z,100388.91
2022-12-08T03:36:01.703Z,100255.75
2022-12-08T03:41:12.135Z,100237.56
2022-12-08T03:46:03.718Z,100368.72
2022-12-08T03:50:55.315Z,100371.41
2022-12-08T03:55:46.868Z,100340.59
2022-12-08T04:00:38.515Z,100281.19
2022-12-08T04:05:30.046Z,100299.38
2022-12-08T04:10:21.569Z,100350.16
2022-12-08T04:15:14.011Z,100353.84
2022-12-08T04:20:06.444Z,100250.81
2022-12-08T04:24:58.229Z,100305.81
2022-12-08T04:29:50.036Z,100255.22
2022-12-08T04:34:41.545Z,100338.34
2022-12-08T04:39:34.437Z,100331.19
2022-12-08T04:44:25.980Z,100328.16
2022-12-08T04:49:17.668Z,100296.25
2022-12-08T04:54:09.228Z,100299.38
2022-12-08T04:59:00.751Z,100219.19
2022-12-08T05:03:52.426Z,100302.69
2022-12-08T05:08:44.099Z,100249.03
2022-12-08T05:13:35.820Z,100285.13
2022-12-08T05:18:27.416Z,100285.66
2022-12-08T05:23:19.035Z,100313.44
2022-12-08T05:28:39.515Z,100126.91
2022-12-08T05:33:22.157Z,100286.66
2022-12-08T05:38:13.672Z,100285.94
2022-12-08T05:43:05.524Z,100296.88
2022-12-08T05:47:57.001Z,100078.28
2022-12-08T05:52:48.578Z,100287.72
2022-12-08T05:57:40.092Z,100286.09
2022-12-08T06:02:31.803Z,100279.38
2022-12-08T06:07:23.531Z,100262.59
2022-12-08T06:12:16.259Z,100277.56
2022-12-08T06:17:07.923Z,100224.81
2022-12-08T06:21:59.512Z,100247.66
2022-12-08T06:26:51.011Z,100236.28
2022-12-08T06:31:42.616Z,100281.94
2022-12-08T06:36:34.715Z,100284.72
2022-12-08T06:41:26.810Z,100285.59
2022-12-08T06:46:19.914Z,100284.19
2022-12-08T06:51:17.587Z,100284.47
2022-12-08T06:56:10.106Z,100205.50
2022-12-08T07:01:06.870Z,100131.19
2022-12-08T07:06:03.447Z,100264.34
2022-12-08T07:10:55.585Z,100294.25
2022-12-08T07:15:47.231Z,100294.59
2022-12-08T07:20:40.076Z,100301.41
2022-12-08T07:25:31.657Z,100254.66
2022-12-08T07:30:23.227Z,100279.00
2022-12-08T07:35:14.902Z,100117.22
2022-12-08T07:40:08.503Z,100308.22
2022-12-08T07:45:00.750Z,100306.44
2022-12-08T07:49:52.592Z,100256.28
2022-12-08T07:54:44.145Z,100305.91
2022-12-08T07:59:35.843Z,100225.56
2022-12-08T08:04:27.458Z,100311.56
2022-12-08T08:09:19.072Z,100301.97
2022-12-08T08:14:12.158Z,100196.81
2022-12-08T08:19:03.818Z,100249.56
2022-12-08T08:23:55.379Z,100257.44
2022-12-08T08:28:48.306Z,100318.81
2022-12-08T08:33:39.854Z,100308.22
2022-12-08T08:38:31.665Z,100274.47
2022-12-08T08:43:36.259Z,100269.91
2022-12-08T08:48:31.813Z,100230.31
2022-12-08T08:53:23.789Z,100291.47
2022-12-08T08:58:15.431Z,100299.53
2022-12-08T09:03:06.924Z,100200.22
2022-12-08T09:07:59.568Z,100310.72
2022-12-08T09:12:51.228Z,100260.03
2022-12-08T09:17:42.898Z,100204.31
2022-12-08T09:22:34.381Z,100304.06
2022-12-08T09:27:27.684Z,100308.38
2022-12-08T09:32:19.202Z,100301.38
2022-12-08T09:37:10.778Z,100303.09
2022-12-08T09:42:06.820Z,100181.06
2022-12-08T09:47:00.381Z,100278.50
2022-12-08T09:51:53.392Z,100302.66
2022-12-08T09:56:45.056Z,100262.69
2022-12-08T10:01:41.770Z,100295.38
2022-12-08T10:06:45.315Z,100097.56
2022-12-08T10:11:49.532Z,100166.09
2022-12-08T10:16:48.433Z,100194.19
2022-12-08T10:21:41.012Z,100157.72
2022-12-08T10:26:33.079Z,100284.47
2022-12-08T10:31:25.548Z,100268.66
2022-12-08T10:36:18.014Z,100173.09
2022-12-08T10:41:09.509Z,100251.66
2022-12-08T10:46:13.099Z,100260.84
2022-12-08T10:51:05.639Z,100235.00
2022-12-08T10:56:03.464Z,100248.66
2022-12-08T11:01:20.829Z,100242.47
2022-12-08T11:06:18.145Z,100244.22
2022-12-08T11:11:09.885Z,100231.00
2022-12-08T11:16:06.380Z,100199.81
2022-12-08T11:21:07.293Z,100230.25
2022-12-08T11:26:04.162Z,100228.31
2022-12-08T11:31:00.581Z,100224.75
2022-12-08T11:36:12.603Z,100216.28
2022-12-08T11:41:16.015Z,100215.22
2022-12-08T11:46:18.800Z,100209.63
2022-12-08T11:51:18.311Z,100200.75
2022-12-08T11:56:23.348Z,100131.56
2022-12-08T12:01:23.955Z,100188.66
2022-12-08T12:12:13.316Z,100149.31
2022-12-08T12:17:08.354Z,100058.56
2022-12-08T12:22:11.730Z,100176.84
2022-12-08T12:27:15.414Z,100184.34
2022-12-08T12:32:09.819Z,100097.31
2022-12-08T12:37:12.543Z,100174.69
2022-12-08T12:42:05.485Z,100091.28
2022-12-08T12:47:02.293Z,100168.16
2022-12-08T12:51:56.903Z,100162.31
2022-12-08T12:56:51.854Z,99982.41
2022-12-08T13:01:53.660Z,100118.53
2022-12-08T13:06:50.077Z,100120.06
2022-12-08T13:11:54.733Z,100090.84
2022-12-08T13:16:54.876Z,100071.63
2022-12-08T13:21:46.792Z,100091.19
2022-12-08T13:27:03.935Z,100119.81
2022-12-08T13:32:02.670Z,100155.19
2022-12-08T13:37:01.087Z,100049.63
2022-12-08T13:42:13.286Z,100052.28
2022-12-08T13:58:24.854Z,100140.44
2022-12-08T14:03:16.502Z,100138.22
2022-12-08T14:08:42.961Z,100052.75
2022-12-08T14:13:33.131Z,100150.63
2022-12-08T14:18:27.501Z,100149.56
2022-12-08T14:23:19.120Z,100044.63
2022-12-08T14:28:11.607Z,100045.00
2022-12-08T14:33:05.144Z,100146.31
2022-12-08T14:38:00.185Z,100143.88
2022-12-08T14:43:14.898Z,100045.31
2022-12-08T14:48:25.586Z,100077.53
2022-12-08T14:53:17.980Z,100051.31
2022-12-08T14:58:27.882Z,100145.53
2022-12-08T15:03:21.838Z,100140.38
2022-12-08T15:08:13.408Z,100148.50
2022-12-08T15:13:10.944Z,100142.13
2022-12-08T15:18:22.603Z,100139.16
2022-12-08T15:23:48.315Z,100147.28
2022-12-08T15:28:39.896Z,100154.59
2022-12-08T15:33:31.548Z,100085.25
2022-12-08T15:38:27.050Z,100172.69
2022-12-08T15:43:19.325Z,100168.28
2022-12-08T15:48:19.788Z,100160.97
2022-12-08T15:53:11.479Z,100105.72
2022-12-08T15:58:51.853Z,100139.47
2022-12-08T16:08:56.214Z,100160.09
2022-12-08T16:13:58.450Z,100154.91
2022-12-08T16:18:51.979Z,100135.75
2022-12-08T16:23:45.290Z,99692.34
2022-12-08T16:28:54.442Z,100157.47
2022-12-08T16:33:46.558Z,100155.81
2022-12-08T16:38:38.164Z,100153.53
2022-12-08T16:43:32.230Z,100125.72
2022-12-08T16:48:23.769Z,100067.00
2022-12-08T16:53:15.407Z,100132.63
2022-12-08T16:58:07.188Z,100048.28
2022-12-08T17:02:58.949Z,100158.59
2022-12-08T17:07:55.119Z,100017.84
2022-12-08T17:12:47.022Z,100083.47
2022-12-08T17:17:39.504Z,100156.19
2022-12-08T17:22:32.738Z,100006.09
2022-12-08T17:27:24.771Z,100158.09
2022-12-08T17:32:16.506Z,100151.22
2022-12-08T17:37:08.139Z,100152.03
2022-12-08T17:41:59.989Z,100097.75
2022-12-08T17:46:53.184Z,99918.06
2022-12-08T17:51:50.511Z,100103.78
2022-12-08T17:56:43.129Z,100143.63
2022-12-08T18:01:35.068Z,100127.56
2022-12-08T18:06:30.971Z,100115.06
2022-12-08T18:11:23.351Z,100066.16
2022-12-08T18:16:15.743Z,100142.03
2022-12-08T18:21:08.345Z,100089.13
2022-12-08T18:25:59.899Z,100137.50
2022-12-08T18:30:51.550Z,100060.09
2022-12-08T18:35:43.141Z,100118.09
2022-12-08T18:40:34.795Z,100153.34
2022-12-08T18:45:26.338Z,100142.19
2022-12-08T18:50:18.632Z,100057.38
2022-12-08T18:55:10.949Z,100095.59
2022-12-08T19:00:04.298Z,100094.97
2022-12-08T19:04:56.397Z,100032.47
2022-12-08T19:09:48.332Z,100067.97
2022-12-08T19:14:41.105Z,100138.22
2022-12-08T19:19:33.191Z,100153.59
2022-12-08T19:24:24.934Z,100155.88
2022-12-08T19:29:16.807Z,100127.72
2022-12-08T19:34:13.085Z,100157.88
2022-12-08T19:39:23.761Z,100101.44
2022-12-08T19:44:32.847Z,100084.34
2022-12-08T19:49:24.536Z,99984.53
2022-12-08T19:54:16.098Z,100119.13
2022-12-08T19:59:07.852Z,100074.06
2022-12-08T20:03:59.418Z,100134.88
2022-12-08T20:08:52.225Z,100076.25
2022-12-08T20:13:48.043Z,100064.16
2022-12-08T20:18:40.847Z,100149.25
2022-12-08T20:23:32.929Z,100071.94
2022-12-08T20:28:24.692Z,100131.63
2022-12-08T20:33:17.734Z,100068.31
2022-12-08T20:38:10.319Z,100129.00
2022-12-08T20:43:02.097Z,100154.91
2022-12-08T20:47:53.628Z,100131.75
2022-12-08T20:52:45.460Z,100127.09
2022-12-08T20:57:37.160Z,100050.19
2022-12-08T21:02:29.229Z,100048.63
2022-12-08T21:07:21.682Z,99973.91
2022-12-08T21:12:13.343Z,100066.19
2022-12-08T21:17:04.993Z,100131.13
2022-12-08T21:21:57.065Z,100126.47
2022-12-08T21:26:48.957Z,100143.03
2022-12-08T21:31:40.900Z,100116.41
2022-12-08T21:36:33.101Z,100147.56
2022-12-08T21:41:43.478Z,100153.34
2022-12-08T21:46:35.484Z,100106.81
2022-12-08T21:51:28.081Z,100140.97
2022-12-08T21:56:20.162Z,100157.78
2022-12-08T22:01:12.636Z,100161.09
2022-12-08T22:06:10.125Z,100135.50
2022-12-08T22:11:02.458Z,100134.53
2022-12-08T22:15:58.876Z,100137.13
2022-12-08T22:20:50.981Z,100083.03
2022-12-08T22:25:42.535Z,100111.25
2022-12-08T22:30:38.880Z,100087.09
2022-12-08T22:35:31.142Z,100105.94
2022-12-08T22:40:23.252Z,100139.00
2022-12-08T22:45:14.876Z,100125.47
2022-12-08T22:50:07.668Z,100145.91
2022-12-08T22:54:59.410Z,100153.31
2022-12-08T22:59:51.199Z,100151.38
2022-12-08T23:04:43.276Z,100148.28
2022-12-08T23:09:35.060Z,100096.34
2022-12-08T23:14:26.926Z,100060.16
2022-12-08T23:19:18.699Z,100139.28
2022-12-08T23:24:10.337Z,100059.50
2022-12-08T23:29:02.912Z,100093.13
2022-12-08T23:33:54.872Z,100103.94
2022-12-08T23:38:46.485Z,100133.03
2022-12-08T23:43:44.232Z,100154.78
2022-12-08T23:48:36.129Z,100143.56
2022-12-08T23:53:30.313Z,100142.72
2022-12-08T23:58:22.231Z,100144.03
